Time;durP1;ratioP1;P1;durP2;ratioP2;P2;SDS_P1;SDS_P2;PMS_P1;PMS_P2;Temp;Humidity;BMP_temperature;BMP_pressure;BME280_temperature;BME280_humidity;BME280_pressure;Samples;Min_cycle;Max_cycle;Signal;HPM_P1;HPM_P2
2022/09/10 00:00:59;;;;;;;36.40;13.10;;;;;;;;;;4942395;29;20043;-72
2022/09/10 00:03:27;;;;;;;16.42;6.00;;;;;;;;;;4946522;28;20695;-69
2022/09/10 00:05:53;;;;;;;9.70;3.28;;;;;;;;;;4948185;28;20135;-69
2022/09/10 00:08:20;;;;;;;13.32;2.72;;;;;;;;;;4947637;29;20043;-69
2022/09/10 00:10:50;;;;;;;7.78;2.60;;;;;;;;;;4950858;29;20063;-67
2022/09/10 00:13:19;;;;;;;6.30;2.55;;;;;;;;;;4950127;29;20092;-71
2022/09/10 00:15:48;;;;;;;40.53;12.02;;;;;;;;;;4942960;28;20420;-68
2022/09/10 00:18:16;;;;;;;7.75;2.53;;;;;;;;;;4947732;29;20486;-70
2022/09/10 00:20:43;;;;;;;42.40;13.82;;;;;;;;;;4949194;28;20043;-68
2022/09/10 00:23:10;;;;;;;31.42;11.23;;;;;;;;;;4945885;28;20059;-69
2022/09/10 00:25:37;;;;;;;23.35;5.38;;;;;;;;;;4949053;28;20568;-70
2022/09/10 00:28:03;;;;;;;10.95;3.95;;;;;;;;;;4948928;29;20501;-68
2022/09/10 00:30:29;;;;;;;14.50;4.85;;;;;;;;;;4934675;29;20058;-70
2022/09/10 00:32:55;;;;;;;19.75;7.97;;;;;;;;;;4929376;28;20495;-68
2022/09/10 00:35:21;;;;;;;24.25;8.98;;;;;;;;;;4947001;28;20047;-69
2022/09/10 00:37:47;;;;;;;29.70;9.90;;;;;;;;;;4948769;28;20047;-68
2022/09/10 00:40:14;;;;;;;18.23;5.50;;;;;;;;;;4945596;28;20039;-69
2022/09/10 00:42:42;;;;;;;9.05;3.60;;;;;;;;;;4948325;29;20050;-70
2022/09/10 00:45:33;;;;;;;10.52;3.58;;;;;;;;;;4946527;28;20130;-69
2022/09/10 00:48:04;;;;;;;8.55;2.50;;;;;;;;;;4943124;29;20062;-68
2022/09/10 00:50:34;;;;;;;12.40;3.90;;;;;;;;;;4946450;29;20246;-69
2022/09/10 00:53:05;;;;;;;13.55;5.70;;;;;;;;;;4949046;28;20119;-70
2022/09/10 00:55:33;;;;;;;7.68;3.35;;;;;;;;;;4947959;28;20444;-68
2022/09/10 00:58:02;;;;;;;8.88;2.80;;;;;;;;;;4951994;29;20138;-71
2022/09/10 01:00:30;;;;;;;7.25;2.75;;;;;;;;;;4951522;29;20048;-70
2022/09/10 01:02:58;;;;;;;7.90;2.40;;;;;;;;;;4952093;29;20047;-68
2022/09/10 01:05:25;;;;;;;17.30;6.15;;;;;;;;;;4949006;29;20074;-70
2022/09/10 01:07:56;;;;;;;18.52;6.72;;;;;;;;;;4952053;29;20508;-69
2022/09/10 01:10:27;;;;;;;14.68;4.88;;;;;;;;;;4949451;28;20585;-70
2022/09/10 01:13:12;;;;;;;9.60;3.70;;;;;;;;;;4952043;28;20457;-68
2022/09/10 01:15:54;;;;;;;8.35;3.72;;;;;;;;;;4945586;29;20406;-67
2022/09/10 01:18:55;;;;;;;10.55;3.65;;;;;;;;;;4932528;29;20054;-68
2022/09/10 01:21:29;;;;;;;6.88;2.30;;;;;;;;;;4944038;28;20051;-68
2022/09/10 01:24:03;;;;;;;7.07;2.50;;;;;;;;;;4949168;29;20090;-69
2022/09/10 01:26:44;;;;;;;7.55;2.33;;;;;;;;;;4950429;28;20050;-70
2022/09/10 01:29:36;;;;;;;10.85;2.10;;;;;;;;;;4948629;28;20051;-68
2022/09/10 01:32:02;;;;;;;9.38;2.00;;;;;;;;;;4939681;29;20075;-68
2022/09/10 01:34:53;;;;;;;5.10;1.90;;;;;;;;;;4948887;28;20049;-71
2022/09/10 01:37:30;;;;;;;5.90;1.70;;;;;;;;;;4943504;29;20055;-71
2022/09/10 01:39:58;;;;;;;4.57;1.85;;;;;;;;;;4951069;28;20043;-72
2022/09/10 01:42:25;;;;;;;6.80;2.05;;;;;;;;;;4950433;28;20052;-69
2022/09/10 01:44:53;;;;;;;4.75;1.98;;;;;;;;;;4951769;28;20047;-68
2022/09/10 01:47:55;;;;;;;5.45;1.95;;;;;;;;;;4950963;28;20047;-69
2022/09/10 01:50:42;;;;;;;7.18;1.90;;;;;;;;;;4952469;28;20106;-71
2022/09/10 01:53:27;;;;;;;5.38;1.70;;;;;;;;;;4940602;29;20102;-69
2022/09/10 01:56:23;;;;;;;6.38;1.70;;;;;;;;;;4949538;29;20039;-70
2022/09/10 01:58:53;;;;;;;5.72;1.83;;;;;;;;;;4947761;28;20047;-69
2022/09/10 02:01:39;;;;;;;4.45;1.95;;;;;;;;;;4952545;29;20043;-68
2022/09/10 02:04:08;;;;;;;8.18;1.90;;;;;;;;;;4951943;28;20683;-67
2022/09/10 02:06:37;;;;;;;4.20;1.65;;;;;;;;;;4952468;29;20053;-68
2022/09/10 02:09:06;;;;;;;3.15;1.48;;;;;;;;;;4951815;28;20204;-66
2022/09/10 02:11:46;;;;;;;8.63;2.08;;;;;;;;;;4953906;29;20110;-69
2022/09/10 02:14:13;;;;;;;6.03;1.70;;;;;;;;;;4947834;28;20075;-69
2022/09/10 02:16:45;;;;;;;4.13;1.65;;;;;;;;;;4952747;28;20566;-70
2022/09/10 02:19:13;;;;;;;5.03;1.63;;;;;;;;;;4950451;28;20058;-68
2022/09/10 02:21:39;;;;;;;5.13;1.70;;;;;;;;;;4960213;28;20065;-69
2022/09/10 02:24:09;;;;;;;4.97;1.50;;;;;;;;;;4950484;28;20043;-69
2022/09/10 02:26:40;;;;;;;4.40;1.70;;;;;;;;;;4943175;29;20047;-68
2022/09/10 02:29:08;;;;;;;6.68;1.70;;;;;;;;;;4950068;28;20066;-68
2022/09/10 02:31:34;;;;;;;5.80;1.67;;;;;;;;;;4958680;28;20053;-69
2022/09/10 02:34:02;;;;;;;6.80;1.67;;;;;;;;;;4948848;28;20051;-68
2022/09/10 02:36:30;;;;;;;5.95;1.85;;;;;;;;;;4951158;28;20068;-67
2022/09/10 02:38:57;;;;;;;5.97;1.67;;;;;;;;;;4949949;29;20043;-68
2022/09/10 02:41:24;;;;;;;3.70;1.52;;;;;;;;;;4945260;28;20039;-67
2022/09/10 02:43:51;;;;;;;4.72;2.00;;;;;;;;;;4948080;28;20065;-69
2022/09/10 02:46:17;;;;;;;7.07;1.90;;;;;;;;;;4950272;28;20789;-68
2022/09/10 02:48:43;;;;;;;9.95;2.08;;;;;;;;;;4946648;29;20052;-67
2022/09/10 02:51:10;;;;;;;5.55;1.70;;;;;;;;;;4949221;29;20102;-67
2022/09/10 02:53:37;;;;;;;3.90;1.63;;;;;;;;;;4946268;28;20450;-67
2022/09/10 02:56:03;;;;;;;6.35;1.70;;;;;;;;;;4948659;29;20559;-67
2022/09/10 02:58:30;;;;;;;4.75;1.67;;;;;;;;;;4953356;29;20059;-67
2022/09/10 03:01:07;;;;;;;5.05;1.58;;;;;;;;;;4949360;29;20110;-67
2022/09/10 03:03:35;;;;;;;3.35;1.52;;;;;;;;;;4946862;29;20095;-67
2022/09/10 03:06:01;;;;;;;3.63;1.52;;;;;;;;;;4932455;29;20406;-68
2022/09/10 03:08:27;;;;;;;5.95;1.50;;;;;;;;;;4941563;29;20127;-76
2022/09/10 03:10:54;;;;;;;3.90;1.30;;;;;;;;;;4946830;28;20044;-66
2022/09/10 03:13:20;;;;;;;4.35;1.45;;;;;;;;;;4944296;28;20434;-68
2022/09/10 03:15:46;;;;;;;6.53;1.58;;;;;;;;;;4951308;28;20082;-68
2022/09/10 03:18:12;;;;;;;2.92;1.50;;;;;;;;;;4946420;28;20047;-68
2022/09/10 03:20:40;;;;;;;3.22;1.23;;;;;;;;;;4948557;28;20054;-68
2022/09/10 03:23:06;;;;;;;4.15;1.45;;;;;;;;;;4947738;29;20511;-69
2022/09/10 03:25:32;;;;;;;5.57;1.50;;;;;;;;;;4949113;29;20050;-68
2022/09/10 03:27:58;;;;;;;9.32;1.48;;;;;;;;;;4947877;28;20119;-69
2022/09/10 03:30:24;;;;;;;3.42;1.20;;;;;;;;;;4945600;29;20527;-68
2022/09/10 03:32:52;;;;;;;5.80;1.33;;;;;;;;;;4950185;29;20641;-68
2022/09/10 03:35:17;;;;;;;5.03;1.30;;;;;;;;;;4947041;28;20050;-67
2022/09/10 03:37:43;;;;;;;3.65;1.50;;;;;;;;;;4949204;28;20051;-68
2022/09/10 03:40:09;;;;;;;5.38;1.55;;;;;;;;;;4964699;28;20044;-67
2022/09/10 03:42:36;;;;;;;3.22;1.33;;;;;;;;;;4947989;29;20036;-69
2022/09/10 03:45:01;;;;;;;3.83;1.50;;;;;;;;;;4947823;28;20050;-68
2022/09/10 03:47:27;;;;;;;4.03;1.10;;;;;;;;;;4951296;28;20509;-69
2022/09/10 03:49:53;;;;;;;4.20;1.75;;;;;;;;;;4948189;28;20096;-69
2022/09/10 03:52:21;;;;;;;5.25;1.52;;;;;;;;;;4945229;28;20422;-68
2022/09/10 03:54:49;;;;;;;6.80;1.80;;;;;;;;;;4946285;28;20110;-67
2022/09/10 03:57:15;;;;;;;4.35;1.50;;;;;;;;;;4942197;29;20048;-67
2022/09/10 03:59:41;;;;;;;6.50;1.58;;;;;;;;;;4943449;29;20110;-66
2022/09/10 04:02:08;;;;;;;3.85;1.50;;;;;;;;;;4949685;28;20067;-69
2022/09/10 04:04:36;;;;;;;2.80;1.40;;;;;;;;;;4945442;28;20048;-68
2022/09/10 04:07:03;;;;;;;5.70;1.67;;;;;;;;;;4948535;29;20047;-68
2022/09/10 04:09:31;;;;;;;7.32;1.60;;;;;;;;;;4943721;29;20043;-67
2022/09/10 04:11:57;;;;;;;7.32;1.52;;;;;;;;;;4944940;29;20043;-68
2022/09/10 04:14:23;;;;;;;6.88;1.40;;;;;;;;;;4948631;29;20051;-66
2022/09/10 04:16:49;;;;;;;3.15;1.38;;;;;;;;;;4946232;28;20078;-69
2022/09/10 04:19:15;;;;;;;2.35;1.40;;;;;;;;;;4950423;28;20494;-67
2022/09/10 04:21:41;;;;;;;3.83;1.42;;;;;;;;;;4951047;29;20193;-68
2022/09/10 04:24:10;;;;;;;6.28;1.40;;;;;;;;;;4949132;28;20477;-67
2022/09/10 04:26:36;;;;;;;4.25;1.75;;;;;;;;;;4946222;28;20047;-67
2022/09/10 04:29:02;;;;;;;5.18;1.30;;;;;;;;;;4926446;29;20073;-68
2022/09/10 04:31:28;;;;;;;5.53;1.60;;;;;;;;;;4953483;29;20123;-68
2022/09/10 04:33:54;;;;;;;3.28;1.55;;;;;;;;;;4945742;29;20118;-69
2022/09/10 04:36:20;;;;;;;6.15;1.50;;;;;;;;;;4936121;28;20063;-68
2022/09/10 04:38:46;;;;;;;5.85;1.48;;;;;;;;;;4953435;28;20102;-67
2022/09/10 04:41:14;;;;;;;4.40;1.40;;;;;;;;;;4953181;28;20564;-67
2022/09/10 04:43:40;;;;;;;7.18;1.48;;;;;;;;;;4954188;29;20429;-66
2022/09/10 04:46:06;;;;;;;3.95;1.52;;;;;;;;;;4949961;28;20536;-68
2022/09/10 04:48:32;;;;;;;5.15;1.52;;;;;;;;;;4952907;29;20118;-66
2022/09/10 04:50:58;;;;;;;3.40;1.40;;;;;;;;;;4952164;29;20051;-67
2022/09/10 04:53:26;;;;;;;9.85;1.60;;;;;;;;;;4953571;28;20050;-68
2022/09/10 04:55:54;;;;;;;7.55;1.60;;;;;;;;;;4951468;29;20055;-67
2022/09/10 04:58:20;;;;;;;3.17;1.30;;;;;;;;;;4953299;29;20047;-68
2022/09/10 05:00:46;;;;;;;4.70;1.33;;;;;;;;;;4953386;28;20054;-67
2022/09/10 05:03:13;;;;;;;3.65;1.60;;;;;;;;;;4952774;29;20549;-67
2022/09/10 05:05:41;;;;;;;4.07;1.70;;;;;;;;;;4950163;28;20094;-67
2022/09/10 05:08:07;;;;;;;4.90;2.00;;;;;;;;;;4953937;29;20082;-68
2022/09/10 05:10:37;;;;;;;3.70;1.50;;;;;;;;;;4957376;28;20051;-67
2022/09/10 05:13:02;;;;;;;4.60;1.98;;;;;;;;;;4952673;29;20058;-67
2022/09/10 05:15:29;;;;;;;5.60;2.08;;;;;;;;;;4949816;29;20138;-66
2022/09/10 05:17:54;;;;;;;3.10;1.70;;;;;;;;;;4943222;28;20155;-67
2022/09/10 05:20:20;;;;;;;8.48;2.20;;;;;;;;;;4947999;28;20153;-68
2022/09/10 05:22:47;;;;;;;5.03;1.80;;;;;;;;;;4931531;29;20051;-68
2022/09/10 05:25:14;;;;;;;7.57;3.17;;;;;;;;;;4946029;29;20066;-69
2022/09/10 05:27:40;;;;;;;6.28;2.17;;;;;;;;;;4952511;28;20047;-68
2022/09/10 05:30:07;;;;;;;4.80;1.70;;;;;;;;;;4950059;28;20608;-69
2022/09/10 05:32:33;;;;;;;6.18;1.60;;;;;;;;;;4950298;28;20401;-69
2022/09/10 05:34:59;;;;;;;7.30;1.83;;;;;;;;;;4948304;28;20051;-68
2022/09/10 05:37:25;;;;;;;3.53;1.52;;;;;;;;;;4950342;28;20062;-68
2022/09/10 05:39:51;;;;;;;2.97;1.50;;;;;;;;;;4942383;28;20051;-69
2022/09/10 05:42:17;;;;;;;4.57;1.63;;;;;;;;;;4950682;28;20051;-70
2022/09/10 05:44:44;;;;;;;4.68;1.70;;;;;;;;;;4954499;28;20102;-67
2022/09/10 05:47:09;;;;;;;4.75;1.45;;;;;;;;;;4953723;29;20047;-69
2022/09/10 05:49:36;;;;;;;4.00;1.58;;;;;;;;;;4950198;28;20039;-68
2022/09/10 05:52:02;;;;;;;5.18;1.50;;;;;;;;;;4951695;28;20051;-68
2022/09/10 05:54:28;;;;;;;4.45;1.65;;;;;;;;;;4952130;28;20553;-68
2022/09/10 05:56:54;;;;;;;3.03;1.40;;;;;;;;;;4955102;29;20071;-69
2022/09/10 05:59:20;;;;;;;5.97;1.58;;;;;;;;;;4944500;29;20052;-69
2022/09/10 06:01:47;;;;;;;3.78;1.90;;;;;;;;;;4950253;28;20485;-69
2022/09/10 06:04:13;;;;;;;5.75;1.70;;;;;;;;;;4946519;29;20058;-70
2022/09/10 06:06:39;;;;;;;3.75;1.90;;;;;;;;;;4950593;29;20049;-69
2022/09/10 06:09:05;;;;;;;6.82;1.63;;;;;;;;;;4947307;28;20047;-69
2022/09/10 06:11:31;;;;;;;6.85;1.70;;;;;;;;;;4949427;29;20035;-69
2022/09/10 06:13:57;;;;;;;5.25;1.70;;;;;;;;;;4957378;28;20084;-70
2022/09/10 06:16:23;;;;;;;4.68;1.48;;;;;;;;;;4952200;29;20079;-69
2022/09/10 06:18:48;;;;;;;5.22;1.70;;;;;;;;;;4958152;28;20050;-66
2022/09/10 06:21:17;;;;;;;4.70;2.00;;;;;;;;;;4952421;28;20048;-64
2022/09/10 06:23:44;;;;;;;6.70;2.25;;;;;;;;;;4951261;28;20062;-64
2022/09/10 06:26:15;;;;;;;5.00;1.60;;;;;;;;;;4947324;28;20458;-66
2022/09/10 06:28:42;;;;;;;3.90;1.42;;;;;;;;;;4941235;29;20079;-67
2022/09/10 06:31:13;;;;;;;5.72;1.73;;;;;;;;;;4948299;28;20060;-69
2022/09/10 06:33:38;;;;;;;5.40;1.83;;;;;;;;;;4950878;29;20043;-68
2022/09/10 06:36:05;;;;;;;7.75;1.88;;;;;;;;;;4951834;28;20102;-65
2022/09/10 06:38:32;;;;;;;3.92;2.05;;;;;;;;;;4946348;29;20096;-65
2022/09/10 06:41:01;;;;;;;3.40;1.73;;;;;;;;;;4929719;29;20066;-64
2022/09/10 06:43:31;;;;;;;9.82;2.00;;;;;;;;;;4948539;28;20059;-66
2022/09/10 06:45:57;;;;;;;9.70;1.85;;;;;;;;;;4948360;29;20043;-67
2022/09/10 06:48:27;;;;;;;4.55;1.90;;;;;;;;;;4949083;29;20133;-65
2022/09/10 06:50:55;;;;;;;8.75;2.00;;;;;;;;;;4942362;29;20062;-68
2022/09/10 06:53:22;;;;;;;7.85;2.05;;;;;;;;;;4947676;28;20055;-67
2022/09/10 06:55:52;;;;;;;7.38;2.00;;;;;;;;;;4949356;28;20498;-69
2022/09/10 06:58:19;;;;;;;10.15;1.83;;;;;;;;;;4945152;28;20051;-69
2022/09/10 07:00:48;;;;;;;8.48;1.50;;;;;;;;;;4950922;28;20505;-68
2022/09/10 07:03:16;;;;;;;7.25;1.50;;;;;;;;;;4946292;29;20065;-69
2022/09/10 07:05:44;;;;;;;6.55;1.80;;;;;;;;;;4944229;29;20051;-69
2022/09/10 07:08:14;;;;;;;5.55;1.67;;;;;;;;;;4947206;28;20078;-68
2022/09/10 07:10:43;;;;;;;7.22;2.00;;;;;;;;;;4946420;29;20051;-67
2022/09/10 07:13:11;;;;;;;7.13;1.60;;;;;;;;;;4947379;28;20085;-65
2022/09/10 07:15:44;;;;;;;6.55;1.95;;;;;;;;;;4948256;28;20134;-68
2022/09/10 07:18:13;;;;;;;6.90;1.87;;;;;;;;;;4950019;29;20134;-66
2022/09/10 07:20:42;;;;;;;4.95;1.90;;;;;;;;;;4944800;28;20475;-67
2022/09/10 07:23:13;;;;;;;7.47;1.90;;;;;;;;;;4926011;29;20077;-67
2022/09/10 07:25:40;;;;;;;10.50;2.53;;;;;;;;;;4942402;28;20074;-66
2022/09/10 07:28:11;;;;;;;7.13;2.38;;;;;;;;;;4954155;28;20050;-67
2022/09/10 07:30:39;;;;;;;9.05;3.80;;;;;;;;;;4943787;28;20576;-69
2022/09/10 07:33:06;;;;;;;8.35;3.70;;;;;;;;;;4946233;28;20059;-70
2022/09/10 07:35:35;;;;;;;6.85;2.20;;;;;;;;;;4945740;28;20490;-68
2022/09/10 07:38:02;;;;;;;5.00;2.30;;;;;;;;;;4946079;28;20035;-67
2022/09/10 07:40:28;;;;;;;7.43;1.88;;;;;;;;;;4944225;29;20093;-68
2022/09/10 07:42:54;;;;;;;9.68;2.05;;;;;;;;;;4946153;28;20460;-74
2022/09/10 07:45:20;;;;;;;7.05;2.03;;;;;;;;;;4943525;29;20055;-74
2022/09/10 07:47:48;;;;;;;8.50;1.77;;;;;;;;;;4946804;28;20126;-73
2022/09/10 07:50:14;;;;;;;12.50;2.38;;;;;;;;;;4941944;29;20075;-70
2022/09/10 07:52:40;;;;;;;3.38;1.50;;;;;;;;;;4946050;28;20097;-69
2022/09/10 07:55:07;;;;;;;8.88;1.73;;;;;;;;;;4949171;28;20499;-70
2022/09/10 07:57:36;;;;;;;6.50;2.00;;;;;;;;;;4943978;29;20061;-72
2022/09/10 08:00:11;;;;;;;11.45;1.95;;;;;;;;;;4950624;28;20078;-69
2022/09/10 08:02:38;;;;;;;6.30;1.70;;;;;;;;;;4948755;28;20489;-69
2022/09/10 08:05:05;;;;;;;8.00;1.80;;;;;;;;;;4950540;28;20197;-74
2022/09/10 08:07:30;;;;;;;10.27;2.00;;;;;;;;;;4945261;28;20051;-74
2022/09/10 08:09:56;;;;;;;8.18;1.75;;;;;;;;;;4939029;28;20066;-76
2022/09/10 08:12:24;;;;;;;4.00;1.83;;;;;;;;;;4944161;28;20365;-77
2022/09/10 08:14:51;;;;;;;4.78;1.60;;;;;;;;;;4947150;28;20118;-75
2022/09/10 08:17:18;;;;;;;5.32;1.65;;;;;;;;;;4949480;28;20048;-74
2022/09/10 08:19:43;;;;;;;6.35;2.20;;;;;;;;;;4950956;29;20067;-78
2022/09/10 08:22:10;;;;;;;4.28;2.00;;;;;;;;;;4944900;28;20147;-76
2022/09/10 08:24:36;;;;;;;7.55;2.00;;;;;;;;;;4937165;28;21471;-75
2022/09/10 08:27:02;;;;;;;6.13;2.15;;;;;;;;;;4944439;28;20047;-76
2022/09/10 08:29:28;;;;;;;5.07;2.30;;;;;;;;;;4945637;29;20058;-72
2022/09/10 08:31:54;;;;;;;6.93;2.38;;;;;;;;;;4945509;28;20181;-71
2022/09/10 08:34:20;;;;;;;9.68;2.28;;;;;;;;;;4945674;28;20134;-75
2022/09/10 08:36:46;;;;;;;8.35;2.70;;;;;;;;;;4948460;29;20532;-70
2022/09/10 08:39:13;;;;;;;8.80;3.08;;;;;;;;;;4943588;28;20138;-72
2022/09/10 08:42:49;;;;;;;6.82;2.50;;;;;;;;;;4945366;28;20133;-71
2022/09/10 08:45:28;;;;;;;10.32;2.65;;;;;;;;;;4886669;29;20112;-75
2022/09/10 08:48:03;;;;;;;5.72;2.10;;;;;;;;;;4868515;29;20566;-72
2022/09/10 08:50:59;;;;;;;8.20;2.20;;;;;;;;;;4883654;29;20495;-70
2022/09/10 08:54:01;;;;;;;13.68;2.47;;;;;;;;;;4887856;29;20139;-72
2022/09/10 08:56:27;;;;;;;4.40;1.95;;;;;;;;;;4886371;29;20060;-71
2022/09/10 08:59:04;;;;;;;5.78;1.90;;;;;;;;;;4887592;29;20461;-76
2022/09/10 09:02:10;;;;;;;7.03;2.20;;;;;;;;;;4887525;29;20061;-71
2022/09/10 09:04:46;;;;;;;7.78;1.92;;;;;;;;;;4864062;29;20072;-74
2022/09/10 09:07:14;;;;;;;9.95;2.33;;;;;;;;;;4885894;29;20092;-72
2022/09/10 09:09:40;;;;;;;4.28;1.85;;;;;;;;;;4882165;29;20498;-70
2022/09/10 09:12:16;;;;;;;8.65;2.40;;;;;;;;;;4886142;29;20883;-73
2022/09/10 09:15:06;;;;;;;8.43;1.65;;;;;;;;;;4884100;29;20115;-71
2022/09/10 09:17:46;;;;;;;7.20;2.13;;;;;;;;;;4882872;29;20083;-73
2022/09/10 09:20:40;;;;;;;9.57;1.92;;;;;;;;;;4934768;29;20058;-70
2022/09/10 09:23:22;;;;;;;9.82;1.92;;;;;;;;;;4944853;28;20050;-72
2022/09/10 09:26:02;;;;;;;5.43;1.85;;;;;;;;;;4943738;28;20130;-73
2022/09/10 09:28:59;;;;;;;6.60;1.90;;;;;;;;;;4925923;28;20047;-75
2022/09/10 09:31:30;;;;;;;7.00;2.03;;;;;;;;;;4939206;28;20177;-77
2022/09/10 09:34:05;;;;;;;7.03;2.00;;;;;;;;;;4943713;28;20050;-75
2022/09/10 09:36:38;;;;;;;8.40;1.88;;;;;;;;;;4945437;28;20043;-76
2022/09/10 09:39:15;;;;;;;6.95;1.85;;;;;;;;;;4931927;29;20039;-77
2022/09/10 09:42:09;;;;;;;5.45;1.70;;;;;;;;;;4940885;28;20055;-74
2022/09/10 09:44:47;;;;;;;4.63;1.83;;;;;;;;;;4943711;29;20580;-76
2022/09/10 09:47:13;;;;;;;6.60;2.00;;;;;;;;;;4948220;29;20445;-79
2022/09/10 09:49:39;;;;;;;6.60;1.88;;;;;;;;;;4952811;28;20063;-77
2022/09/10 09:52:19;;;;;;;8.18;2.03;;;;;;;;;;4951446;29;20051;-74
2022/09/10 09:54:51;;;;;;;6.25;2.08;;;;;;;;;;4948800;28;20055;-78
2022/09/10 09:57:19;;;;;;;8.60;1.83;;;;;;;;;;4949761;29;20118;-76
2022/09/10 09:59:47;;;;;;;4.80;1.60;;;;;;;;;;4946318;28;20424;-74
2022/09/10 10:02:23;;;;;;;7.95;2.25;;;;;;;;;;4945301;28;20401;-75
2022/09/10 10:04:55;;;;;;;4.80;1.80;;;;;;;;;;4944535;28;20497;-76
2022/09/10 10:07:31;;;;;;;4.45;1.42;;;;;;;;;;4945288;28;20075;-78
2022/09/10 10:09:59;;;;;;;4.80;1.80;;;;;;;;;;4943341;28;20505;-80
2022/09/10 10:12:30;;;;;;;5.13;1.70;;;;;;;;;;4944001;28;20051;-77
2022/09/10 10:14:57;;;;;;;9.52;2.05;;;;;;;;;;4941114;29;21349;-77
2022/09/10 10:17:23;;;;;;;4.13;1.70;;;;;;;;;;4943142;28;20047;-78
2022/09/10 10:20:09;;;;;;;5.10;2.03;;;;;;;;;;4952345;28;20055;-81
2022/09/10 10:22:37;;;;;;;7.63;1.80;;;;;;;;;;4953488;28;20062;-75
2022/09/10 10:25:24;;;;;;;7.10;2.08;;;;;;;;;;4945607;29;20126;-78
2022/09/10 10:27:53;;;;;;;9.52;2.00;;;;;;;;;;4949095;29;20054;-79
2022/09/10 10:30:22;;;;;;;10.38;2.08;;;;;;;;;;4949135;29;20083;-81
2022/09/10 10:32:57;;;;;;;4.70;2.00;;;;;;;;;;4957539;28;20054;-79
2022/09/10 10:35:50;;;;;;;7.25;1.88;;;;;;;;;;4958071;28;20058;-81
2022/09/10 10:38:34;;;;;;;6.57;1.98;;;;;;;;;;4959376;28;20043;-80
2022/09/10 10:41:25;;;;;;;6.35;2.25;;;;;;;;;;4962221;29;20059;-81
2022/09/10 10:44:24;;;;;;;7.20;2.13;;;;;;;;;;4970288;28;20038;-83
2022/09/10 10:46:58;;;;;;;4.80;1.70;;;;;;;;;;4970622;29;20102;-83
2022/09/10 10:50:02;;;;;;;11.68;2.30;;;;;;;;;;4966379;29;20086;-81
2022/09/10 10:52:46;;;;;;;6.22;2.00;;;;;;;;;;4957930;29;20074;-75
2022/09/10 10:55:24;;;;;;;7.72;2.33;;;;;;;;;;4938909;28;20418;-76
2022/09/10 10:58:31;;;;;;;6.70;2.17;;;;;;;;;;4929465;29;20083;-76
2022/09/10 11:01:04;;;;;;;5.18;1.63;;;;;;;;;;4946297;29;21106;-77
2022/09/10 11:03:41;;;;;;;6.68;1.88;;;;;;;;;;4947176;29;20054;-74
2022/09/10 11:06:19;;;;;;;8.00;1.98;;;;;;;;;;4942637;28;20413;-77
2022/09/10 11:09:00;;;;;;;4.90;1.60;;;;;;;;;;4941921;29;20064;-72
2022/09/10 11:11:30;;;;;;;4.40;1.70;;;;;;;;;;4944891;28;20117;-76
2022/09/10 11:14:41;;;;;;;4.53;1.58;;;;;;;;;;4945815;29;20051;-77
2022/09/10 11:17:25;;;;;;;7.13;1.80;;;;;;;;;;4931838;29;20107;-77
2022/09/10 11:20:13;;;;;;;6.80;1.63;;;;;;;;;;4943602;29;20465;-77
2022/09/10 11:22:47;;;;;;;8.23;2.05;;;;;;;;;;4948373;29;21866;-79
2022/09/10 11:25:26;;;;;;;5.20;1.77;;;;;;;;;;4926540;29;20523;-74
2022/09/10 11:28:09;;;;;;;4.60;1.60;;;;;;;;;;4943743;28;20059;-74
2022/09/10 11:30:39;;;;;;;4.45;1.52;;;;;;;;;;4942031;29;20047;-75
2022/09/10 11:33:16;;;;;;;5.43;1.60;;;;;;;;;;4926645;29;20055;-74
2022/09/10 11:35:58;;;;;;;3.38;1.50;;;;;;;;;;4941330;29;20047;-76
2022/09/10 11:38:54;;;;;;;5.30;1.58;;;;;;;;;;4942938;28;20532;-75
2022/09/10 11:41:22;;;;;;;5.15;1.60;;;;;;;;;;4946299;28;20411;-75
2022/09/10 11:44:21;;;;;;;5.63;1.77;;;;;;;;;;4943369;29;20487;-76
2022/09/10 11:47:23;;;;;;;3.45;1.50;;;;;;;;;;4945447;29;20051;-76
2022/09/10 11:50:42;;;;;;;5.20;2.05;;;;;;;;;;4941187;28;20052;-76
2022/09/10 11:53:13;;;;;;;10.63;3.13;;;;;;;;;;4932204;29;20058;-76
2022/09/10 11:55:42;;;;;;;5.93;1.75;;;;;;;;;;4923767;28;20142;-74
2022/09/10 11:58:14;;;;;;;8.07;2.50;;;;;;;;;;4938118;28;20055;-75
2022/09/10 12:01:12;;;;;;;7.30;2.33;;;;;;;;;;4939484;28;20043;-76
2022/09/10 12:03:54;;;;;;;6.78;1.75;;;;;;;;;;4942145;29;20509;-74
2022/09/10 12:06:45;;;;;;;6.15;1.52;;;;;;;;;;4939416;29;20055;-74
2022/09/10 12:09:36;;;;;;;7.47;1.85;;;;;;;;;;4940570;29;20047;-71
2022/09/10 12:12:03;;;;;;;5.80;1.55;;;;;;;;;;4933862;29;20505;-75
2022/09/10 12:14:29;;;;;;;6.03;1.65;;;;;;;;;;4942920;28;20160;-76
2022/09/10 12:17:02;;;;;;;5.88;1.77;;;;;;;;;;4948795;29;20882;-77
2022/09/10 12:19:36;;;;;;;7.85;2.85;;;;;;;;;;4943757;29;20106;-72
2022/09/10 12:22:06;;;;;;;5.32;1.40;;;;;;;;;;4941399;29;20670;-73
2022/09/10 12:24:35;;;;;;;4.72;1.65;;;;;;;;;;4941095;29;20055;-71
2022/09/10 12:27:04;;;;;;;6.95;1.70;;;;;;;;;;4937391;28;20778;-66
2022/09/10 12:29:35;;;;;;;5.28;2.22;;;;;;;;;;4918087;29;20073;-66
2022/09/10 12:32:07;;;;;;;5.80;1.75;;;;;;;;;;4942116;28;20178;-67
2022/09/10 12:34:37;;;;;;;3.85;1.70;;;;;;;;;;4946055;28;20058;-67
2022/09/10 12:37:03;;;;;;;8.77;1.73;;;;;;;;;;4945379;29;20047;-66
2022/09/10 12:39:29;;;;;;;4.65;1.33;;;;;;;;;;4939990;29;20049;-72
2022/09/10 12:42:01;;;;;;;4.70;1.65;;;;;;;;;;4940928;29;20051;-72
2022/09/10 12:44:33;;;;;;;4.20;1.52;;;;;;;;;;4943449;29;20533;-69
2022/09/10 12:47:17;;;;;;;4.40;1.73;;;;;;;;;;4940482;29;20079;-82
2022/09/10 12:49:45;;;;;;;;;;;;;;;;;;4943082;28;20405;-76
2022/09/10 12:52:15;;;;;;;3.65;1.38;;;;;;;;;;4944539;28;20402;-74
2022/09/10 12:55:17;;;;;;;4.07;1.40;;;;;;;;;;4944545;29;20489;-74
2022/09/10 12:58:10;;;;;;;6.13;1.50;;;;;;;;;;4928047;29;20415;-69
2022/09/10 13:00:49;;;;;;;4.50;1.27;;;;;;;;;;4943575;29;20138;-67
2022/09/10 13:03:18;;;;;;;4.03;1.40;;;;;;;;;;4940737;29;20043;-67
2022/09/10 13:05:52;;;;;;;4.10;1.55;;;;;;;;;;4921460;29;20410;-66
2022/09/10 13:08:32;;;;;;;5.13;1.63;;;;;;;;;;4945075;29;20089;-66
2022/09/10 13:10:58;;;;;;;3.83;1.05;;;;;;;;;;4939023;28;20055;-66
2022/09/10 13:13:33;;;;;;;3.40;1.30;;;;;;;;;;4945185;28;20487;-65
2022/09/10 13:16:00;;;;;;;4.45;1.30;;;;;;;;;;4945268;28;20138;-73
2022/09/10 13:18:32;;;;;;;3.70;1.23;;;;;;;;;;4945822;29;20055;-64
2022/09/10 13:20:58;;;;;;;4.63;1.58;;;;;;;;;;4928922;28;20055;-66
2022/09/10 13:23:46;;;;;;;4.50;1.15;;;;;;;;;;4947626;28;20375;-67
2022/09/10 13:26:27;;;;;;;6.82;1.40;;;;;;;;;;4942626;28;20043;-69
2022/09/10 13:28:53;;;;;;;5.80;1.52;;;;;;;;;;4944163;28;20082;-65
2022/09/10 13:31:25;;;;;;;5.95;1.40;;;;;;;;;;4946542;28;20644;-66
2022/09/10 13:34:10;;;;;;;5.18;1.35;;;;;;;;;;4948971;28;20447;-66
2022/09/10 13:37:01;;;;;;;3.25;1.45;;;;;;;;;;4951224;28;20051;-67
2022/09/10 13:39:56;;;;;;;5.18;1.40;;;;;;;;;;4949709;28;20043;-71
2022/09/10 13:42:48;;;;;;;4.78;1.63;;;;;;;;;;4942215;28;20101;-66
2022/09/10 13:45:19;;;;;;;5.25;1.30;;;;;;;;;;4945422;29;20063;-66
2022/09/10 13:48:01;;;;;;;5.03;1.33;;;;;;;;;;4946101;28;20456;-65
2022/09/10 13:50:37;;;;;;;4.30;1.48;;;;;;;;;;4944301;29;20051;-66
2022/09/10 13:53:07;;;;;;;5.60;1.50;;;;;;;;;;4945790;29;20474;-69
2022/09/10 13:55:37;;;;;;;5.60;1.30;;;;;;;;;;4946288;29;20317;-68
2022/09/10 13:58:17;;;;;;;4.80;1.60;;;;;;;;;;4945646;28;20050;-66
2022/09/10 14:01:04;;;;;;;6.45;1.60;;;;;;;;;;4943620;28;20356;-66
2022/09/10 14:03:32;;;;;;;4.18;1.30;;;;;;;;;;4944556;29;20055;-69
2022/09/10 14:06:04;;;;;;;2.92;1.15;;;;;;;;;;4941037;29;20502;-66
2022/09/10 14:08:42;;;;;;;2.80;1.27;;;;;;;;;;4945385;29;20109;-66
2022/09/10 14:11:11;;;;;;;5.63;1.20;;;;;;;;;;4941442;28;20724;-67
2022/09/10 14:13:46;;;;;;;3.13;1.13;;;;;;;;;;4928768;28;20498;-64
2022/09/10 14:16:19;;;;;;;7.55;1.50;;;;;;;;;;4941725;28;20060;-67
2022/09/10 14:18:51;;;;;;;3.50;1.23;;;;;;;;;;4926742;29;20123;-64
2022/09/10 14:21:25;;;;;;;5.78;1.33;;;;;;;;;;4922870;29;20086;-66
2022/09/10 14:23:57;;;;;;;7.45;1.30;;;;;;;;;;4926039;29;20474;-65
2022/09/10 14:26:26;;;;;;;4.50;1.30;;;;;;;;;;4925587;29;20557;-65
2022/09/10 14:28:59;;;;;;;9.80;1.60;;;;;;;;;;4924616;29;20208;-67
2022/09/10 14:31:25;;;;;;;4.75;1.15;;;;;;;;;;4922758;29;20580;-66
2022/09/10 14:33:53;;;;;;;2.72;1.20;;;;;;;;;;4925851;29;20055;-64
2022/09/10 14:36:34;;;;;;;5.10;1.25;;;;;;;;;;4927111;29;20349;-68
2022/09/10 14:39:03;;;;;;;6.78;1.40;;;;;;;;;;4925750;29;20054;-66
2022/09/10 14:41:31;;;;;;;3.67;1.40;;;;;;;;;;4925124;29;20044;-67
2022/09/10 14:44:22;;;;;;;4.07;1.38;;;;;;;;;;4938950;28;20482;-66
2022/09/10 14:47:07;;;;;;;6.80;1.20;;;;;;;;;;4926064;29;20509;-65
2022/09/10 14:49:35;;;;;;;4.40;1.73;;;;;;;;;;4924285;29;20043;-65
2022/09/10 14:52:02;;;;;;;3.53;1.58;;;;;;;;;;4923782;29;20059;-64
2022/09/10 14:54:33;;;;;;;5.55;1.30;;;;;;;;;;4923423;29;20043;-65
2022/09/10 14:57:05;;;;;;;4.35;1.60;;;;;;;;;;4924547;29;20055;-63
2022/09/10 14:59:35;;;;;;;6.53;1.05;;;;;;;;;;4925191;29;20166;-66
2022/09/10 15:02:11;;;;;;;4.43;1.40;;;;;;;;;;4925586;29;20078;-66
2022/09/10 15:04:40;;;;;;;4.93;1.25;;;;;;;;;;4923054;29;20538;-65
2022/09/10 15:07:08;;;;;;;4.80;1.05;;;;;;;;;;4924719;29;20051;-65
2022/09/10 15:09:34;;;;;;;5.70;1.70;;;;;;;;;;4923999;29;20062;-66
2022/09/10 15:12:22;;;;;;;4.22;1.70;;;;;;;;;;4923541;29;20476;-64
2022/09/10 15:14:49;;;;;;;3.95;1.60;;;;;;;;;;4928617;28;20062;-66